Time;durP1;ratioP1;P1;durP2;ratioP2;P2;SDS_P1;SDS_P2;PMS_P1;PMS_P2;Temp;Humidity;BMP_temperature;BMP_pressure;BME280_temperature;BME280_humidity;BME280_pressure;Samples;Min_cycle;Max_cycle;Signal;HPM_P1;HPM_P2
2023/07/18 00:01:24;;;;;;;;;;;;;;;22.24;41.48;101809.03;4133364;28;20286;-70
2023/07/18 00:03:28;;;;;;;;;;;;;;;22.23;41.41;101818.88;4148793;28;19975;-69
2023/07/18 00:05:30;;;;;;;;;;;;;;;22.23;41.35;101818.88;4149368;28;19921;-70
2023/07/18 00:07:32;;;;;;;;;;;;;;;22.20;41.40;101804.81;4149565;28;19983;-69
2023/07/18 00:09:35;;;;;;;;;;;;;;;22.16;41.38;101804.16;4148593;28;19922;-69
2023/07/18 00:11:37;;;;;;;;;;;;;;;22.20;41.65;101811.03;4143975;28;19938;-70
2023/07/18 00:13:38;;;;;;;;;;;;;;;22.18;41.63;101808.44;4132843;28;19925;-70
2023/07/18 00:15:40;;;;;;;;;;;;;;;22.19;41.43;101812.00;4132927;28;19930;-69
2023/07/18 00:17:42;;;;;;;;;;;;;;;22.18;41.42;101803.09;4132580;28;20348;-71
2023/07/18 00:19:43;;;;;;;;;;;;;;;22.18;41.50;101804.94;4132775;28;19922;-71
2023/07/18 00:21:45;;;;;;;;;;;;;;;22.17;41.26;101806.72;4133072;28;19922;-69
2023/07/18 00:23:47;;;;;;;;;;;;;;;22.16;41.46;101813.06;4132870;28;20094;-69
2023/07/18 00:25:48;;;;;;;;;;;;;;;22.16;41.46;101804.16;4132615;28;20299;-69
2023/07/18 00:27:51;;;;;;;;;;;;;;;22.16;41.58;101804.16;4132338;28;19922;-70
2023/07/18 00:29:54;;;;;;;;;;;;;;;22.15;41.71;101807.78;4132860;28;19984;-70
2023/07/18 00:31:56;;;;;;;;;;;;;;;22.14;41.33;101806.06;4132357;28;19968;-70
2023/07/18 00:33:57;;;;;;;;;;;;;;;22.13;41.52;101797.19;4132841;28;19932;-70
2023/07/18 00:35:59;;;;;;;;;;;;;;;22.13;41.59;101799.03;4132933;28;20301;-70
2023/07/18 00:38:01;;;;;;;;;;;;;;;22.14;41.60;101795.34;4131929;28;20634;-69
2023/07/18 00:40:02;;;;;;;;;;;;;;;22.13;41.57;101801.72;4132296;28;19952;-70
2023/07/18 00:42:05;;;;;;;;;;;;;;;22.12;41.57;101795.47;4132760;28;19921;-70
2023/07/18 00:44:06;;;;;;;;;;;;;;;22.12;41.95;101789.25;4132754;28;19925;-70
2023/07/18 00:46:08;;;;;;;;;;;;;;;22.12;41.83;101790.13;4132575;28;20008;-70
2023/07/18 00:48:10;;;;;;;;;;;;;;;22.12;41.67;101792.78;4131562;28;19921;-69
2023/07/18 00:50:16;;;;;;;;;;;;;;;22.10;41.62;101784.03;4132550;28;20012;-70
2023/07/18 00:52:18;;;;;;;;;;;;;;;22.09;41.59;101782.31;4132692;28;20302;-69
2023/07/18 00:54:20;;;;;;;;;;;;;;;22.09;41.91;101784.09;4132161;28;20024;-70
2023/07/18 00:56:22;;;;;;;;;;;;;;;22.08;41.69;101783.25;4132933;28;20381;-70
2023/07/18 00:58:24;;;;;;;;;;;;;;;22.08;41.75;101783.25;4131439;28;19922;-70
2023/07/18 01:00:26;;;;;;;;;;;;;;;22.08;41.59;101782.38;4132426;28;19921;-70
2023/07/18 01:02:28;;;;;;;;;;;;;;;22.08;41.74;101779.69;4139995;28;19921;-70
2023/07/18 01:04:30;;;;;;;;;;;;;;;22.06;41.82;101779.81;4148531;28;20020;-70
2023/07/18 01:06:32;;;;;;;;;;;;;;;22.06;41.67;101774.44;4148573;28;19929;-69
2023/07/18 01:08:33;;;;;;;;;;;;;;;22.07;41.78;101778.00;4147493;28;20008;-70
2023/07/18 01:10:38;;;;;;;;;;;;;;;22.06;41.74;101778.97;4148216;28;19922;-70
2023/07/18 01:12:39;;;;;;;;;;;;;;;22.05;41.86;101770.06;4134723;28;20316;-70
2023/07/18 01:14:41;;;;;;;;;;;;;;;22.05;41.79;101771.88;4132182;28;20328;-69
2023/07/18 01:16:43;;;;;;;;;;;;;;;22.04;41.77;101776.38;4132201;28;19976;-69
2023/07/18 01:18:44;;;;;;;;;;;;;;;22.04;41.93;101776.38;4131201;28;20395;-70
2023/07/18 01:20:46;;;;;;;;;;;;;;;22.04;42.08;101771.00;4131984;28;19928;-70
2023/07/18 01:22:49;;;;;;;;;;;;;;;22.02;41.76;101771.13;4114925;28;20336;-69
2023/07/18 01:24:51;;;;;;;;;;;;;;;22.03;41.67;101772.00;4131762;28;19965;-70
2023/07/18 01:26:53;;;;;;;;;;;;;;;22.01;42.15;101760.53;4131895;28;19921;-69
2023/07/18 01:28:55;;;;;;;;;;;;;;;22.01;41.84;101765.88;4130864;28;20293;-69
2023/07/18 01:30:56;;;;;;;;;;;;;;;22.01;41.76;101771.25;4131976;28;19929;-71
2023/07/18 01:32:58;;;;;;;;;;;;;;;22.01;41.90;101771.25;4130869;28;20385;-70
2023/07/18 01:35:05;;;;;;;;;;;;;;;22.01;41.73;101771.25;4114673;28;19922;-69
2023/07/18 01:37:07;;;;;;;;;;;;;;;22.00;42.02;101764.16;4132048;28;19925;-69
2023/07/18 01:39:08;;;;;;;;;;;;;;;22.00;42.09;101772.19;4130376;28;19926;-70
2023/07/18 01:41:10;;;;;;;;;;;;;;;22.00;41.92;101773.03;4131903;28;20404;-70
2023/07/18 01:43:11;;;;;;;;;;;;;;;21.99;41.86;101768.66;4130809;28;20344;-70
2023/07/18 01:45:13;;;;;;;;;;;;;;;21.98;41.81;101766.06;4131615;28;19921;-70
2023/07/18 01:47:14;;;;;;;;;;;;;;;21.99;41.91;101768.66;4131485;28;19965;-70
2023/07/18 01:49:17;;;;;;;;;;;;;;;21.98;41.90;101769.63;4130595;28;19921;-70
2023/07/18 01:51:19;;;;;;;;;;;;;;;21.99;41.91;101765.13;4131652;28;20296;-70
2023/07/18 01:53:21;;;;;;;;;;;;;;;21.98;42.20;101758.03;4131663;28;20419;-70
2023/07/18 01:55:23;;;;;;;;;;;;;;;21.97;41.68;101754.50;4131517;28;20312;-71
2023/07/18 01:57:31;;;;;;;;;;;;;;;21.97;42.00;101748.28;4131620;28;19929;-70
2023/07/18 01:59:33;;;;;;;;;;;;;;;21.96;41.87;101751.94;4130423;28;19949;-70
2023/07/18 02:01:34;;;;;;;;;;;;;;;21.95;41.90;101748.38;4131951;28;19964;-70
2023/07/18 02:03:37;;;;;;;;;;;;;;;21.94;41.98;101746.66;4147588;28;19921;-70
2023/07/18 02:05:39;;;;;;;;;;;;;;;21.94;41.92;101745.81;4147761;28;19926;-70
2023/07/18 02:07:40;;;;;;;;;;;;;;;21.94;42.14;101745.81;4147229;28;20106;-70
2023/07/18 02:09:42;;;;;;;;;;;;;;;21.93;42.07;101738.75;4146669;28;19925;-70
2023/07/18 02:11:43;;;;;;;;;;;;;;;21.92;42.32;101729.88;4141503;28;19921;-70
2023/07/18 02:13:45;;;;;;;;;;;;;;;21.92;42.27;101732.53;4131465;28;19922;-70
2023/07/18 02:15:46;;;;;;;;;;;;;;;21.92;42.61;101732.53;4131148;28;20008;-70
2023/07/18 02:17:48;;;;;;;;;;;;;;;21.91;42.70;101724.59;4131399;28;20404;-70
2023/07/18 02:19:50;;;;;;;;;;;;;;;21.91;42.51;101729.94;4130405;28;20012;-71
2023/07/18 02:21:51;;;;;;;;;;;;;;;21.91;42.63;101729.94;4131166;28;19921;-70
2023/07/18 02:23:53;;;;;;;;;;;;;;;21.90;42.59;101731.78;4131002;28;19922;-70
2023/07/18 02:25:54;;;;;;;;;;;;;;;21.90;42.34;101722.91;4131364;28;19961;-70
2023/07/18 02:27:56;;;;;;;;;;;;;;;21.88;42.12;101722.97;4131352;28;20417;-70
2023/07/18 02:30:00;;;;;;;;;;;;;;;21.89;42.28;101730.06;4130363;28;20432;-70
2023/07/18 02:32:02;;;;;;;;;;;;;;;21.88;42.26;101712.28;4131317;28;20325;-70
2023/07/18 02:34:04;;;;;;;;;;;;;;;21.88;42.07;101722.13;4131352;28;19957;-70
2023/07/18 02:36:06;;;;;;;;;;;;;;;21.87;42.25;101718.59;4130774;28;19980;-71
2023/07/18 02:38:08;;;;;;;;;;;;;;;21.88;42.19;101708.75;4130873;28;19921;-70
2023/07/18 02:40:11;;;;;;;;;;;;;;;21.86;42.52;101715.06;4130673;28;20012;-70
2023/07/18 02:42:13;;;;;;;;;;;;;;;21.85;42.45;101710.66;4131314;28;19948;-70
2023/07/18 02:44:14;;;;;;;;;;;;;;;21.86;42.43;101709.69;4130906;28;19961;-70
2023/07/18 02:46:16;;;;;;;;;;;;;;;21.86;42.49;101714.22;4131323;28;19922;-71
2023/07/18 02:48:17;;;;;;;;;;;;;;;21.85;42.54;101707.13;4130306;28;19932;-71
2023/07/18 02:50:19;;;;;;;;;;;;;;;21.84;42.53;101708.94;4130730;28;19921;-70
2023/07/18 02:52:20;;;;;;;;;;;;;;;21.84;42.17;101711.63;4131038;28;20338;-71
2023/07/18 02:54:22;;;;;;;;;;;;;;;21.84;42.63;101703.59;4132079;28;19928;-70
2023/07/18 02:56:24;;;;;;;;;;;;;;;21.83;42.63;101698.34;4134512;28;19922;-71
2023/07/18 02:58:25;;;;;;;;;;;;;;;21.83;42.83;101701.03;4133467;28;20270;-71
2023/07/18 03:00:28;;;;;;;;;;;;;;;21.84;42.46;101697.38;4134222;28;20012;-70
2023/07/18 03:02:31;;;;;;;;;;;;;;;21.83;42.24;101696.50;4142096;28;19922;-70
2023/07/18 03:04:32;;;;;;;;;;;;;;;21.84;42.22;101700.06;4150326;28;19961;-71
2023/07/18 03:06:34;;;;;;;;;;;;;;;21.82;42.41;101689.47;4149940;28;20004;-70
2023/07/18 03:08:36;;;;;;;;;;;;;;;21.72;42.73;101669.63;4149529;28;20375;-71
2023/07/18 03:10:38;;;;;;;;;;;;;;;21.82;42.20;101680.56;4150248;28;19972;-70
2023/07/18 03:12:40;;;;;;;;;;;;;;;21.82;42.22;101684.09;4136674;28;20344;-70
2023/07/18 03:14:42;;;;;;;;;;;;;;;21.81;42.11;101682.38;4133873;28;19969;-70
2023/07/18 03:16:45;;;;;;;;;;;;;;;21.81;42.21;101677.03;4116695;28;19929;-71
2023/07/18 03:18:47;;;;;;;;;;;;;;;21.80;42.23;101680.66;4133086;28;19991;-70
2023/07/18 03:20:49;;;;;;;;;;;;;;;21.80;42.39;101679.78;4133403;28;19988;-70
2023/07/18 03:22:50;;;;;;;;;;;;;;;21.80;42.78;101677.13;4133862;28;19926;-70
2023/07/18 03:24:54;;;;;;;;;;;;;;;21.80;42.15;101671.75;4133781;28;19976;-70
2023/07/18 03:26:56;;;;;;;;;;;;;;;21.80;42.14;101685.16;4133993;28;19960;-70
2023/07/18 03:28:57;;;;;;;;;;;;;;;21.78;42.50;101684.41;4132836;28;20289;-70
2023/07/18 03:30:59;;;;;;;;;;;;;;;21.76;42.10;101681.81;4133856;28;19922;-70
2023/07/18 03:33:00;;;;;;;;;;;;;;;21.77;42.03;101674.66;4134030;28;20384;-70
2023/07/18 03:35:02;;;;;;;;;;;;;;;21.76;42.32;101676.47;4133175;28;20301;-70
2023/07/18 03:37:06;;;;;;;;;;;;;;;21.76;42.55;101671.09;4133605;28;19922;-70
2023/07/18 03:39:08;;;;;;;;;;;;;;;21.75;42.64;101674.78;4132733;28;20332;-70
2023/07/18 03:41:09;;;;;;;;;;;;;;;21.75;42.32;101669.41;4133747;28;19922;-70
2023/07/18 03:43:16;;;;;;;;;;;;;;;21.76;42.12;101667.59;4133621;28;20030;-70
2023/07/18 03:45:17;;;;;;;;;;;;;;;21.74;42.24;101666.81;4133788;28;19961;-70
2023/07/18 03:47:19;;;;;;;;;;;;;;;21.74;42.41;101665.03;4133512;28;19921;-71
2023/07/18 03:49:22;;;;;;;;;;;;;;;21.75;42.50;101668.53;4132309;28;19928;-69
2023/07/18 03:51:23;;;;;;;;;;;;;;;21.74;42.45;101661.47;4133635;28;20022;-68
2023/07/18 03:53:27;;;;;;;;;;;;;;;21.73;42.43;101655.28;4133439;28;20013;-70
2023/07/18 03:55:29;;;;;;;;;;;;;;;21.74;42.28;101664.16;4133485;28;19922;-70
2023/07/18 03:57:31;;;;;;;;;;;;;;;21.73;42.65;101657.94;4133536;28;19929;-70
2023/07/18 03:59:33;;;;;;;;;;;;;;;21.73;42.33;101657.94;4132093;28;20305;-70
2023/07/18 04:01:36;;;;;;;;;;;;;;;21.73;42.34;101657.94;4134011;28;19921;-70
2023/07/18 04:03:38;;;;;;;;;;;;;;;21.72;42.18;101656.22;4149292;28;19921;-70
2023/07/18 04:05:39;;;;;;;;;;;;;;;21.72;42.41;101656.22;4148647;28;20336;-70
2023/07/18 04:07:41;;;;;;;;;;;;;;;21.71;42.61;101654.50;4149411;28;20008;-70
2023/07/18 04:09:43;;;;;;;;;;;;;;;21.71;42.41;101659.84;4148578;28;19921;-70
2023/07/18 04:11:46;;;;;;;;;;;;;;;21.70;42.45;101656.34;4143157;28;19928;-71
2023/07/18 04:13:47;;;;;;;;;;;;;;;21.70;42.42;101656.34;4133186;28;20004;-70
2023/07/18 04:15:49;;;;;;;;;;;;;;;21.68;42.67;101650.22;4133101;28;19921;-71
2023/07/18 04:17:50;;;;;;;;;;;;;;;21.68;42.87;101644.88;4132738;28;20090;-69
2023/07/18 04:19:52;;;;;;;;;;;;;;;21.68;42.70;101654.72;4132037;28;19922;-70
2023/07/18 04:21:53;;;;;;;;;;;;;;;21.67;42.50;101637.78;4133066;28;19929;-70
2023/07/18 04:23:55;;;;;;;;;;;;;;;21.67;42.53;101642.31;4132630;28;19929;-71
2023/07/18 04:25:58;;;;;;;;;;;;;;;21.68;42.33;101633.31;4132943;28;19976;-69
2023/07/18 04:27:59;;;;;;;;;;;;;;;21.68;42.39;101636.84;4133023;28;20463;-70
2023/07/18 04:30:01;;;;;;;;;;;;;;;21.67;42.42;101637.78;4131985;28;20407;-69
2023/07/18 04:32:03;;;;;;;;;;;;;;;21.68;42.54;101633.31;4132638;28;19922;-70
2023/07/18 04:34:05;;;;;;;;;;;;;;;21.66;42.47;101630.72;4132841;28;20340;-70
2023/07/18 04:36:07;;;;;;;;;;;;;;;21.67;42.72;101623.56;4132601;28;19922;-70
2023/07/18 04:38:09;;;;;;;;;;;;;;;21.67;42.63;101621.72;4132670;28;19932;-70
2023/07/18 04:40:11;;;;;;;;;;;;;;;21.65;42.64;101629.03;4131614;28;19926;-70
2023/07/18 04:42:13;;;;;;;;;;;;;;;21.63;42.36;101617.56;4132778;28;19928;-70
2023/07/18 04:44:14;;;;;;;;;;;;;;;21.66;42.44;101616.50;4132563;28;19925;-70
2023/07/18 04:46:16;;;;;;;;;;;;;;;21.65;42.41;101612.09;4132801;28;19922;-70
2023/07/18 04:48:18;;;;;;;;;;;;;;;21.64;42.50;101613.06;4132501;28;19932;-71
2023/07/18 04:50:20;;;;;;;;;;;;;;;21.65;42.40;101614.78;4131756;28;20008;-70
2023/07/18 04:52:21;;;;;;;;;;;;;;;21.66;42.51;101611.13;4132637;28;19981;-71
2023/07/18 04:54:23;;;;;;;;;;;;;;;21.63;42.66;101608.66;4132496;28;19922;-70
2023/07/18 04:56:24;;;;;;;;;;;;;;;21.65;42.52;101604.06;4132373;28;19922;-70
2023/07/18 04:58:27;;;;;;;;;;;;;;;21.65;42.69;101606.75;4132235;28;19922;-71
2023/07/18 05:00:29;;;;;;;;;;;;;;;21.63;42.54;101608.66;4130354;28;20305;-71
2023/07/18 05:02:31;;;;;;;;;;;;;;;21.64;42.52;101602.34;4140116;28;19948;-70
2023/07/18 05:04:32;;;;;;;;;;;;;;;21.62;42.63;101599.78;4148319;28;19921;-70
2023/07/18 05:06:34;;;;;;;;;;;;;;;21.63;42.51;101604.19;4148602;28;19929;-70
2023/07/18 05:08:36;;;;;;;;;;;;;;;21.63;42.53;101597.94;4148358;28;20296;-71
2023/07/18 05:10:39;;;;;;;;;;;;;;;21.64;42.39;101591.63;4147765;28;19932;-70
2023/07/18 05:12:40;;;;;;;;;;;;;;;21.63;42.41;101584.56;4162038;28;19920;-70
2023/07/18 05:14:42;;;;;;;;;;;;;;;21.62;42.64;101581.03;4164661;28;19925;-70
2023/07/18 05:16:43;;;;;;;;;;;;;;;21.61;42.62;101568.63;4164271;28;19921;-70
2023/07/18 05:18:45;;;;;;;;;;;;;;;21.62;42.54;101578.38;4163845;28;19925;-71
2023/07/18 05:20:47;;;;;;;;;;;;;;;21.62;42.48;101581.03;4164705;28;19921;-70
2023/07/18 05:22:48;;;;;;;;;;;;;;;21.62;42.29;101590.91;4164434;28;19943;-71
2023/07/18 05:24:50;;;;;;;;;;;;;;;21.61;42.42;101587.34;4164572;28;20427;-70
2023/07/18 05:26:52;;;;;;;;;;;;;;;21.60;42.58;101596.34;4164497;28;19955;-69
2023/07/18 05:28:53;;;;;;;;;;;;;;;21.61;42.41;101592.72;4163844;28;20007;-70
2023/07/18 05:30:55;;;;;;;;;;;;;;;21.62;42.33;101598.94;4164084;28;19928;-70
2023/07/18 05:32:57;;;;;;;;;;;;;;;21.61;42.37;101599.88;4164550;28;19925;-71
2023/07/18 05:34:59;;;;;;;;;;;;;;;21.60;42.42;101600.84;4147013;28;19931;-70
2023/07/18 05:37:01;;;;;;;;;;;;;;;21.59;42.46;101588.41;4164303;28;20300;-70
2023/07/18 05:39:02;;;;;;;;;;;;;;;21.60;42.38;101582.94;4163656;28;19976;-71
2023/07/18 05:41:04;;;;;;;;;;;;;;;21.61;42.42;101583.81;4146860;28;19929;-71
2023/07/18 05:43:06;;;;;;;;;;;;;;;21.59;42.28;101583.91;4164339;28;19967;-71
2023/07/18 05:45:08;;;;;;;;;;;;;;;21.60;42.24;101582.94;4163866;28;19925;-71
2023/07/18 05:47:09;;;;;;;;;;;;;;;21.59;42.35;101580.41;4164270;28;20307;-71
2023/07/18 05:49:11;;;;;;;;;;;;;;;21.60;42.22;101590.16;4163389;28;20323;-71
2023/07/18 05:51:12;;;;;;;;;;;;;;;21.60;42.54;101590.97;4164013;28;19921;-71
2023/07/18 05:53:14;;;;;;;;;;;;;;;21.60;42.60;101595.50;4164311;28;19928;-71
2023/07/18 05:55:16;;;;;;;;;;;;;;;21.59;42.47;101594.63;4163918;28;19977;-71
2023/07/18 05:57:17;;;;;;;;;;;;;;;21.59;42.36;101589.28;4164220;28;20388;-71
2023/07/18 05:59:19;;;;;;;;;;;;;;;21.58;42.32;101589.38;4162653;28;20012;-71
2023/07/18 06:01:21;;;;;;;;;;;;;;;21.57;42.39;101588.53;4164209;28;19993;-71
2023/07/18 06:03:24;;;;;;;;;;;;;;;21.57;42.27;101593.88;4148879;28;19964;-71
2023/07/18 06:05:25;;;;;;;;;;;;;;;21.57;42.26;101601.91;4147516;28;19921;-71
2023/07/18 06:07:27;;;;;;;;;;;;;;;21.57;42.33;101595.69;4147714;28;20365;-71
2023/07/18 06:09:28;;;;;;;;;;;;;;;21.57;42.18;101596.56;4146589;28;19922;-71
2023/07/18 06:11:30;;;;;;;;;;;;;;;21.57;42.17;101593.88;4151524;28;19928;-71
2023/07/18 06:13:32;;;;;;;;;;;;;;;21.55;42.42;101591.25;4163567;28;19925;-71
2023/07/18 06:15:33;;;;;;;;;;;;;;;21.55;42.13;101598.44;4163778;28;20016;-70
2023/07/18 06:17:35;;;;;;;;;;;;;;;21.55;42.39;101599.28;4164036;28;19921;-70
2023/07/18 06:19:37;;;;;;;;;;;;;;;21.56;42.14;101589.47;4162806;28;19921;-71
2023/07/18 06:21:39;;;;;;;;;;;;;;;21.56;41.92;101608.19;4164001;28;20423;-71
2023/07/18 06:23:41;;;;;;;;;;;;;;;21.55;42.09;101598.44;4163953;28;19928;-71
2023/07/18 06:25:45;;;;;;;;;;;;;;;21.55;42.15;101601.13;4163773;28;19921;-71
2023/07/18 06:27:46;;;;;;;;;;;;;;;21.55;42.29;101601.97;4163847;28;19928;-71
2023/07/18 06:29:48;;;;;;;;;;;;;;;21.55;42.37;101604.66;4162254;28;19959;-71
2023/07/18 06:31:50;;;;;;;;;;;;;;;21.58;42.00;101600.09;4163605;28;19956;-71
2023/07/18 06:33:51;;;;;;;;;;;;;;;21.57;42.32;101601.91;4163724;28;20023;-71
2023/07/18 06:35:54;;;;;;;;;;;;;;;21.58;41.92;101608.13;4163901;28;19960;-70
2023/07/18 06:37:55;;;;;;;;;;;;;;;21.59;42.04;101613.34;4163827;28;19925;-71
2023/07/18 06:39:57;;;;;;;;;;;;;;;21.60;42.27;101606.19;4162744;28;19921;-71
2023/07/18 06:41:58;;;;;;;;;;;;;;;21.61;42.15;101608.78;4163627;28;20269;-71
2023/07/18 06:44:00;;;;;;;;;;;;;;;21.63;41.91;101609.53;4163271;28;19921;-71
2023/07/18 06:46:01;;;;;;;;;;;;;;;21.61;42.03;101611.44;4163584;28;20016;-71
2023/07/18 06:48:03;;;;;;;;;;;;;;;21.62;42.23;101628.38;4163836;28;20337;-71
2023/07/18 06:50:05;;;;;;;;;;;;;;;21.64;41.94;101632.66;4162860;28;19921;-71
2023/07/18 06:52:07;;;;;;;;;;;;;;;21.65;41.82;101618.31;4163656;28;19925;-71
2023/07/18 06:54:09;;;;;;;;;;;;;;;21.63;41.82;101611.31;4163500;28;20426;-71
2023/07/18 06:56:10;;;;;;;;;;;;;;;21.63;41.73;101604.19;4163776;28;20281;-72
2023/07/18 06:58:12;;;;;;;;;;;;;;;21.60;41.73;101604.38;4163412;28;20007;-71
2023/07/18 07:00:20;;;;;;;;;;;;;;;21.61;42.07;101611.44;4162656;28;20031;-69
2023/07/18 07:02:21;;;;;;;;;;;;;;;21.61;41.58;101614.13;4156869;28;19928;-71
2023/07/18 07:04:23;;;;;;;;;;;;;;;21.61;41.59;101619.47;4147291;28;19964;-72
2023/07/18 07:06:25;;;;;;;;;;;;;;;21.64;41.77;101626.44;4147089;28;19933;-72
2023/07/18 07:08:28;;;;;;;;;;;;;;;21.64;41.70;101619.28;4147417;28;20246;-71
2023/07/18 07:10:33;;;;;;;;;;;;;;;21.63;41.69;101625.59;4146293;28;19921;-71
2023/07/18 07:12:34;;;;;;;;;;;;;;;21.64;41.64;101632.66;4134179;28;19922;-72
2023/07/18 07:14:38;;;;;;;;;;;;;;;21.64;41.58;101621.09;4131238;28;19922;-71
2023/07/18 07:16:39;;;;;;;;;;;;;;;21.64;41.63;101621.09;4131009;28;20373;-71
2023/07/18 07:18:41;;;;;;;;;;;;;;;21.64;41.47;101623.75;4131030;28;19980;-71
2023/07/18 07:20:42;;;;;;;;;;;;;;;21.63;41.64;101606.84;4129714;28;19928;-72
2023/07/18 07:22:46;;;;;;;;;;;;;;;21.64;41.64;101610.38;4130947;28;19971;-72
2023/07/18 07:24:47;;;;;;;;;;;;;;;21.66;41.38;101630.72;4130826;28;20273;-72
2023/07/18 07:26:50;;;;;;;;;;;;;;;21.66;41.34;101624.53;4130597;28;19971;-71
2023/07/18 07:28:52;;;;;;;;;;;;;;;21.67;41.38;101637.78;4130739;28;19953;-72
2023/07/18 07:30:53;;;;;;;;;;;;;;;21.69;41.38;101640.38;4129842;28;19925;-72
2023/07/18 07:32:55;;;;;;;;;;;;;;;21.73;41.23;101641.88;4130818;28;20436;-71
2023/07/18 07:34:57;;;;;;;;;;;;;;;21.75;41.33;101633.72;4130850;28;19926;-71
2023/07/18 07:36:59;;;;;;;;;;;;;;;21.78;41.26;101631.72;4130845;28;19925;-72
2023/07/18 07:39:00;;;;;;;;;;;;;;;21.80;41.11;101619.09;4130831;28;20320;-72
2023/07/18 07:41:03;;;;;;;;;;;;;;;21.78;41.23;101582.66;4129701;28;19922;-71
2023/07/18 07:43:05;;;;;;;;;;;;;;;21.78;41.16;101575.47;4133627;28;19929;-72
2023/07/18 07:45:07;;;;;;;;;;;;;;;21.77;41.32;101556.84;4133463;28;20008;-71
2023/07/18 07:47:08;;;;;;;;;;;;;;;21.74;41.13;101539.19;4133586;28;20313;-72
2023/07/18 07:49:11;;;;;;;;;;;;;;;21.72;41.24;101503.63;4133539;28;20078;-72
2023/07/18 07:51:14;;;;;;;;;;;;;;;21.71;41.43;101483.16;4133273;28;20428;-72
2023/07/18 07:53:16;;;;;;;;;;;;;;;21.72;41.27;101457.25;4133388;28;19926;-71
2023/07/18 07:55:17;;;;;;;;;;;;;;;21.69;41.16;101428.88;4133256;28;20366;-71
2023/07/18 07:57:19;;;;;;;;;;;;;;;21.69;41.33;101424.38;4133380;28;19977;-72
2023/07/18 07:59:20;;;;;;;;;;;;;;;21.69;41.15;101436.91;4132425;28;19928;-72
2023/07/18 08:01:22;;;;;;;;;;;;;;;21.70;41.02;101435.94;4133240;28;19972;-71
2023/07/18 08:03:24;;;;;;;;;;;;;;;21.72;41.29;101417.09;4148640;28;19929;-71
2023/07/18 08:05:25;;;;;;;;;;;;;;;21.74;41.13;101396.41;4149301;28;20304;-71
2023/07/18 08:07:27;;;;;;;;;;;;;;;21.76;41.25;101399.84;4149394;28;20320;-70
2023/07/18 08:09:29;;;;;;;;;;;;;;;21.78;41.02;101411.31;4148145;28;19951;-71
2023/07/18 08:11:30;;;;;;;;;;;;;;;21.78;40.96;101401.44;4145018;28;19921;-70
2023/07/18 08:13:32;;;;;;;;;;;;;;;21.79;40.98;101392.44;4133181;28;19922;-71
2023/07/18 08:15:33;;;;;;;;;;;;;;;21.82;40.93;101391.34;4133206;28;20320;-70
2023/07/18 08:17:35;;;;;;;;;;;;;;;21.80;40.71;101372.72;4133188;28;19921;-71
2023/07/18 08:19:37;;;;;;;;;;;;;;;21.82;40.94;101368.13;4132250;28;19993;-71
2023/07/18 08:21:38;;;;;;;;;;;;;;;21.84;40.73;101366.19;4133043;28;19926;-71
2023/07/18 08:23:40;;;;;;;;;;;;;;;21.85;40.98;101367.88;4132824;28;20305;-72
2023/07/18 08:25:43;;;;;;;;;;;;;;;21.88;40.69;101371.31;4132792;28;19929;-72
2023/07/18 08:27:45;;;;;;;;;;;;;;;21.88;40.90;101366.81;4132982;28;20309;-72
2023/07/18 08:29:48;;;;;;;;;;;;;;;21.89;40.82;101395.31;4132108;28;19922;-71
2023/07/18 08:31:51;;;;;;;;;;;;;;;21.88;41.12;101404.28;4132882;28;19922;-71
2023/07/18 08:33:53;;;;;;;;;;;;;;;21.90;40.95;101413.09;4132903;28;19945;-72
2023/07/18 08:35:54;;;;;;;;;;;;;;;21.92;41.07;101421.88;4132724;28;19925;-72
2023/07/18 08:37:56;;;;;;;;;;;;;;;21.94;40.84;101432.47;4132830;28;19929;-72
2023/07/18 08:39:58;;;;;;;;;;;;;;;21.95;41.13;101445.75;4131635;28;19922;-72
2023/07/18 08:42:03;;;;;;;;;;;;;;;21.97;41.02;101450.97;4132562;28;20375;-72
2023/07/18 08:44:07;;;;;;;;;;;;;;;21.98;40.72;101463.41;4132728;28;19968;-72
2023/07/18 08:46:09;;;;;;;;;;;;;;;22.00;40.79;101473.03;4132799;28;20340;-72
2023/07/18 08:48:12;;;;;;;;;;;;;;;22.02;40.67;101471.13;4132543;28;19921;-72
2023/07/18 08:50:14;;;;;;;;;;;;;;;22.03;40.69;101472.00;4131689;28;19925;-72
2023/07/18 08:52:15;;;;;;;;;;;;;;;22.05;40.79;101472.72;4132125;28;19922;-72
2023/07/18 08:54:17;;;;;;;;;;;;;;;22.06;40.54;101476.25;4132189;28;19925;-72
2023/07/18 08:56:19;;;;;;;;;;;;;;;22.06;40.56;101482.47;4132563;28;20309;-72
2023/07/18 08:58:22;;;;;;;;;;;;;;;22.07;40.50;101476.16;4132241;28;19922;-71
2023/07/18 09:00:25;;;;;;;;;;;;;;;22.08;40.61;101472.50;4131745;28;20415;-72
2023/07/18 09:02:26;;;;;;;;;;;;;;;22.09;40.67;101466.19;4139672;28;19925;-72
2023/07/18 09:04:28;;;;;;;;;;;;;;;22.11;40.66;101474.09;4148632;28;19932;-71
2023/07/18 09:06:29;;;;;;;;;;;;;;;22.12;40.63;101486.53;4148461;28;19921;-72
2023/07/18 09:08:39;;;;;;;;;;;;;;;22.13;40.64;101473.00;4148296;28;20424;-72
2023/07/18 09:10:41;;;;;;;;;;;;;;;22.15;40.59;101476.44;4147479;28;20403;-71
2023/07/18 09:12:42;;;;;;;;;;;;;;;22.14;40.45;101472.06;4148540;28;20012;-72
2023/07/18 09:14:44;;;;;;;;;;;;;;;22.14;40.31;101472.06;4148473;28;19932;-72
2023/07/18 09:16:47;;;;;;;;;;;;;;;22.14;40.75;101469.38;4148762;28;19925;-72
2023/07/18 09:18:49;;;;;;;;;;;;;;;22.15;40.55;101471.09;4148486;28;19991;-72
2023/07/18 09:20:54;;;;;;;;;;;;;;;22.17;40.45;101468.28;4147327;28;19928;-73
2023/07/18 09:22:57;;;;;;;;;;;;;;;22.19;40.48;101469.03;4148037;28;19921;-72
2023/07/18 09:25:04;;;;;;;;;;;;;;;22.20;40.46;101457.38;4148136;28;19922;-73
2023/07/18 09:27:06;;;;;;;;;;;;;;;22.23;40.40;101456.28;4148222;28;20382;-72
2023/07/18 09:29:13;;;;;;;;;;;;;;;22.24;40.42;101453.47;4148180;28;20397;-72
2023/07/18 09:31:18;;;;;;;;;;;;;;;22.26;40.35;101458.72;4147258;28;19961;-73
2023/07/18 09:33:24;;;;;;;;;;;;;;;22.27;40.46;101452.41;4148254;28;20608;-73
2023/07/18 09:35:26;;;;;;;;;;;;;;;22.27;40.24;101450.59;4148283;28;20388;-73
2023/07/18 09:37:28;;;;;;;;;;;;;;;22.29;40.45;101450.47;4147854;28;19933;-72
2023/07/18 09:39:30;;;;;;;;;;;;;;;22.30;40.57;101446.81;4147893;28;19922;-71
2023/07/18 09:41:38;;;;;;;;;;;;;;;22.31;40.38;101444.03;4147736;28;19921;-72
2023/07/18 09:43:41;;;;;;;;;;;;;;;22.32;40.46;101429.66;4148175;28;19943;-72
2023/07/18 09:45:43;;;;;;;;;;;;;;;22.33;40.30;101427.81;4147919;28;19925;-71
2023/07/18 09:47:44;;;;;;;;;;;;;;;22.36;40.18;101432.09;4130664;28;20483;-71
2023/07/18 09:49:46;;;;;;;;;;;;;;;22.38;40.22;101430.16;4147272;28;19968;-71
2023/07/18 09:51:56;;;;;;;;;;;;;;;22.38;40.09;101428.34;4147480;28;19921;-71
2023/07/18 09:53:58;;;;;;;;;;;;;;;22.40;40.32;101428.25;4147928;28;19956;-71
2023/07/18 09:56:00;;;;;;;;;;;;;;;22.41;40.07;101432.66;4147749;28;19921;-72
2023/07/18 09:58:02;;;;;;;;;;;;;;;22.41;40.01;101422.78;4147746;28;19925;-71
2023/07/18 10:00:15;;;;;;;;;;;;;;;22.44;40.07;101424.38;4114331;28;20337;-71
2023/07/18 10:02:16;;;;;;;;;;;;;;;22.45;39.76;101420.72;4131437;28;19922;-71
2023/07/18 10:04:23;;;;;;;;;;;;;;;22.46;39.99;101420.59;4130801;28;20013;-71
2023/07/18 10:06:26;;;;;;;;;;;;;;;22.46;40.23;101411.72;4131191;28;19926;-71
2023/07/18 10:08:28;;;;;;;;;;;;;;;22.47;40.10;101418.81;4131557;28;19929;-71
2023/07/18 10:10:29;;;;;;;;;;;;;;;22.47;40.16;101416.13;4130572;28;19922;-71
2023/07/18 10:12:35;;;;;;;;;;;;;;;22.48;40.06;101418.69;4119052;28;20012;-71
2023/07/18 10:14:42;;;;;;;;;;;;;;;22.52;40.09;101413.06;4115410;28;19957;-72
2023/07/18 10:16:52;;;;;;;;;;;;;;;22.53;39.88;101401.38;4115339;28;19929;-72
2023/07/18 10:18:54;;;;;;;;;;;;;;;22.53;39.89;101396.88;4098277;28;20139;-72
2023/07/18 10:20:58;;;;;;;;;;;;;;;22.55;39.76;101402.13;4114000;28;19946;-72
2023/07/18 10:23:05;;;;;;;;;;;;;;;22.56;39.70;101404.69;4115440;28;19983;-71
2023/07/18 10:25:07;;;;;;;;;;;;;;;22.59;39.82;101390.19;4115093;28;20405;-71
2023/07/18 10:27:08;;;;;;;;;;;;;;;22.60;39.86;101384.72;4115345;28;19922;-71